createdAt,value
2019-02-17T00:00:19.642Z,50.00
2019-02-17T00:01:19.673Z,48.90
2019-02-17T00:02:19.624Z,46.90
2019-02-17T00:03:19.606Z,43.00
2019-02-17T00:04:19.599Z,42.90
2019-02-17T00:05:19.584Z,40.70
2019-02-17T00:06:19.585Z,39.70
2019-02-17T00:07:19.602Z,37.40
2019-02-17T00:08:19.555Z,37.20
2019-02-17T00:09:19.543Z,36.20
2019-02-17T00:10:19.531Z,35.90
2019-02-17T00:11:19.533Z,35.60
2019-02-17T00:12:19.510Z,37.00
2019-02-17T00:13:19.513Z,36.40
2019-02-17T00:14:19.492Z,34.80
2019-02-17T00:15:19.471Z,34.00
2019-02-17T00:16:19.471Z,34.80
2019-02-17T00:17:19.461Z,36.50
2019-02-17T00:18:19.445Z,38.90
2019-02-17T00:19:19.490Z,38.70
2019-02-17T00:20:19.423Z,35.50
2019-02-17T00:21:19.431Z,37.90
2019-02-17T00:22:19.395Z,41.30
2019-02-17T00:23:19.391Z,38.00
2019-02-17T00:24:19.375Z,40.80
2019-02-17T00:25:20.502Z,32.60
2019-02-17T00:26:19.354Z,35.40
2019-02-17T00:27:19.352Z,32.40
2019-02-17T00:28:19.331Z,32.20
2019-02-17T00:29:19.331Z,33.60
2019-02-17T00:30:19.304Z,37.70
2019-02-17T00:31:19.296Z,35.70
2019-02-17T00:32:19.351Z,37.40
2019-02-17T00:33:19.272Z,35.60
2019-02-17T00:34:19.262Z,34.20
2019-02-17T00:35:19.248Z,36.70
2019-02-17T00:36:19.240Z,35.80
2019-02-17T00:37:19.234Z,31.60
2019-02-17T00:38:19.283Z,29.20
2019-02-17T00:39:19.207Z,29.80
2019-02-17T00:40:19.197Z,30.00
2019-02-17T00:41:19.182Z,28.00
2019-02-17T00:42:19.172Z,31.70
2019-02-17T00:43:19.162Z,30.40
2019-02-17T00:44:19.202Z,29.00
2019-02-17T00:45:19.138Z,28.50
2019-02-17T00:46:19.125Z,30.60
2019-02-17T00:47:19.115Z,29.80
2019-02-17T00:48:19.126Z,27.30
2019-02-17T00:49:19.100Z,29.30
2019-02-17T00:50:19.151Z,28.00
2019-02-17T00:51:19.085Z,26.80
2019-02-17T00:52:19.059Z,26.80
2019-02-17T00:53:19.051Z,27.30
2019-02-17T00:54:19.036Z,26.80
2019-02-17T00:55:19.029Z,25.50
2019-02-17T00:56:19.065Z,25.20
2019-02-17T00:57:19.025Z,31.60
2019-02-17T00:58:19.006Z,29.10
2019-02-17T00:59:18.983Z,28.00
2019-02-17T01:00:18.970Z,27.40
2019-02-17T01:01:18.963Z,24.70
2019-02-17T01:02:19.008Z,29.50
2019-02-17T01:03:19.016Z,31.10
2019-02-17T01:04:18.937Z,28.60
2019-02-17T01:05:18.921Z,29.20
2019-02-17T01:06:18.911Z,30.70
2019-02-17T01:07:18.911Z,27.20
2019-02-17T01:08:18.925Z,27.30
2019-02-17T01:09:18.924Z,27.60
2019-02-17T01:10:18.860Z,30.60
2019-02-17T01:11:18.852Z,31.10
2019-02-17T01:12:18.844Z,28.20
2019-02-17T01:13:18.830Z,27.00
2019-02-17T01:14:18.819Z,35.20
2019-02-17T01:15:18.882Z,30.60
2019-02-17T01:16:18.793Z,29.90
2019-02-17T01:17:18.784Z,30.40
2019-02-17T01:18:18.774Z,31.20
2019-02-17T01:19:18.767Z,34.20
2019-02-17T01:20:18.774Z,31.40
2019-02-17T01:21:18.762Z,30.80
2019-02-17T01:22:18.730Z,32.10
2019-02-17T01:23:18.735Z,33.00
2019-02-17T01:24:18.708Z,29.10
2019-02-17T01:25:18.715Z,29.90
2019-02-17T01:26:18.687Z,30.40
2019-02-17T01:27:18.712Z,28.40
2019-02-17T01:28:18.662Z,27.50
2019-02-17T01:29:20.816Z,29.40
2019-02-17T01:30:18.647Z,29.40
2019-02-17T01:31:18.652Z,29.60
2019-02-17T01:32:18.616Z,30.70
2019-02-17T01:33:18.666Z,31.60
2019-02-17T01:34:18.592Z,30.40
2019-02-17T01:35:18.596Z,29.10
2019-02-17T01:36:18.576Z,28.70
2019-02-17T01:37:18.576Z,29.40
2019-02-17T01:38:18.566Z,31.20
2019-02-17T01:39:18.578Z,30.70
2019-02-17T01:40:18.529Z,27.20
2019-02-17T01:41:18.517Z,26.90
2019-02-17T01:42:18.509Z,28.50
2019-02-17T01:43:18.494Z,31.70
2019-02-17T01:44:18.495Z,29.70
2019-02-17T01:45:18.521Z,29.40
2019-02-17T01:46:18.462Z,29.30
2019-02-17T01:47:18.452Z,26.60
2019-02-17T01:48:18.441Z,31.80
2019-02-17T01:49:18.431Z,30.10
2019-02-17T01:50:18.435Z,31.90
2019-02-17T01:51:18.439Z,29.20
2019-02-17T01:52:18.397Z,31.40
2019-02-17T01:53:18.383Z,29.60
2019-02-17T01:54:18.387Z,29.00
2019-02-17T01:55:18.356Z,29.60
2019-02-17T01:56:18.347Z,31.10
2019-02-17T01:57:18.377Z,32.10
2019-02-17T01:58:18.350Z,29.00
2019-02-17T01:59:18.321Z,28.10
2019-02-17T02:00:18.316Z,27.20
2019-02-17T02:01:18.294Z,30.10
2019-02-17T02:02:18.287Z,27.10
2019-02-17T02:03:18.311Z,29.50
2019-02-17T02:04:18.276Z,29.80
2019-02-17T02:05:18.247Z,30.70
2019-02-17T02:06:18.238Z,30.80
2019-02-17T02:07:18.246Z,33.70
2019-02-17T02:08:18.213Z,32.90
2019-02-17T02:09:18.255Z,31.10
2019-02-17T02:10:18.209Z,36.30
2019-02-17T02:11:18.181Z,32.60
2019-02-17T02:12:18.171Z,29.70
2019-02-17T02:13:18.157Z,30.30
2019-02-17T02:14:18.154Z,28.60
2019-02-17T02:15:18.217Z,27.70
2019-02-17T02:16:18.123Z,28.90
2019-02-17T02:17:18.113Z,29.60
2019-02-17T02:18:18.102Z,28.20
2019-02-17T02:19:18.091Z,31.00
2019-02-17T02:20:18.081Z,28.40
2019-02-17T02:21:18.125Z,29.70
2019-02-17T02:22:18.055Z,31.60
2019-02-17T02:23:18.049Z,28.80
2019-02-17T02:24:18.039Z,29.20
2019-02-17T02:25:18.023Z,28.60
2019-02-17T02:26:18.021Z,30.00
2019-02-17T02:27:18.065Z,29.70
2019-02-17T02:28:17.989Z,30.80
2019-02-17T02:29:17.981Z,26.60
2019-02-17T02:30:17.973Z,26.80
2019-02-17T02:31:17.954Z,28.30
2019-02-17T02:32:17.962Z,27.80
2019-02-17T02:33:17.984Z,28.00
2019-02-17T02:34:17.923Z,29.60
2019-02-17T02:35:17.911Z,27.20
2019-02-17T02:36:17.908Z,28.60
2019-02-17T02:37:17.893Z,27.40
2019-02-17T02:38:17.896Z,25.90
2019-02-17T02:39:17.915Z,28.30
2019-02-17T02:40:17.858Z,28.40
2019-02-17T02:41:17.852Z,27.00
2019-02-17T02:42:17.842Z,27.30
2019-02-17T02:43:17.842Z,28.50
2019-02-17T02:44:17.814Z,26.60
2019-02-17T02:45:17.854Z,27.40
2019-02-17T02:46:17.792Z,27.80
2019-02-17T02:47:17.781Z,26.60
2019-02-17T02:48:17.769Z,26.80
2019-02-17T02:49:17.775Z,30.60
2019-02-17T02:50:17.745Z,26.60
2019-02-17T02:51:17.780Z,30.10
2019-02-17T02:52:17.736Z,28.00
2019-02-17T02:53:17.711Z,29.50
2019-02-17T02:54:17.705Z,25.50
2019-02-17T02:55:17.717Z,27.70
2019-02-17T02:56:17.678Z,26.20
2019-02-17T02:57:17.669Z,29.20
2019-02-17T02:58:17.710Z,28.50
2019-02-17T02:59:17.648Z,27.00
2019-02-17T03:00:17.642Z,30.20
2019-02-17T03:01:17.635Z,28.80
2019-02-17T03:02:17.623Z,28.50
2019-02-17T03:03:17.599Z,25.90
2019-02-17T03:04:17.653Z,27.10
2019-02-17T03:05:17.581Z,27.50
2019-02-17T03:06:17.586Z,26.80
2019-02-17T03:07:17.556Z,27.10
2019-02-17T03:08:17.559Z,27.30
2019-02-17T03:09:17.540Z,28.50
2019-02-17T03:10:17.587Z,29.50
2019-02-17T03:11:17.518Z,26.20
2019-02-17T03:12:17.502Z,28.10
2019-02-17T03:13:17.495Z,30.50
2019-02-17T03:14:17.501Z,27.50
2019-02-17T03:15:17.471Z,27.10
2019-02-17T03:16:17.453Z,27.50
2019-02-17T03:17:17.491Z,26.60
2019-02-17T03:18:17.433Z,28.20
2019-02-17T03:19:17.423Z,30.30
2019-02-17T03:20:17.416Z,27.70
2019-02-17T03:21:17.403Z,27.40
2019-02-17T03:22:17.402Z,24.10
2019-02-17T03:23:17.451Z,27.10
2019-02-17T03:24:17.365Z,30.00
2019-02-17T03:25:17.359Z,31.10
2019-02-17T03:26:17.349Z,25.50
2019-02-17T03:27:17.361Z,27.10
2019-02-17T03:28:17.323Z,27.00
2019-02-17T03:29:17.356Z,30.80
2019-02-17T03:30:17.304Z,28.90
2019-02-17T03:31:17.288Z,29.20
2019-02-17T03:32:17.279Z,29.50
2019-02-17T03:33:17.278Z,28.20
2019-02-17T03:34:17.271Z,28.10
2019-02-17T03:35:17.283Z,26.50
2019-02-17T03:36:17.236Z,28.50
2019-02-17T03:37:17.224Z,27.80
2019-02-17T03:38:17.215Z,25.80
2019-02-17T03:39:17.220Z,25.40
2019-02-17T03:40:17.242Z,27.30
2019-02-17T03:41:17.206Z,28.40
2019-02-17T03:42:17.167Z,29.20
2019-02-17T03:43:17.159Z,25.00
2019-02-17T03:44:17.152Z,26.50
2019-02-17T03:45:17.145Z,27.10
2019-02-17T03:46:17.145Z,29.40
2019-02-17T03:47:17.149Z,28.70
2019-02-17T03:48:17.099Z,24.50
2019-02-17T03:49:17.092Z,27.20
2019-02-17T03:50:17.081Z,27.00
2019-02-17T03:51:17.068Z,27.40
2019-02-17T03:52:17.081Z,29.80
2019-02-17T03:53:17.081Z,29.10
2019-02-17T03:54:17.036Z,26.90
2019-02-17T03:55:17.025Z,25.50
2019-02-17T03:56:17.013Z,28.90
2019-02-17T03:57:17.004Z,26.90
2019-02-17T03:58:17.010Z,28.50
2019-02-17T03:59:17.015Z,27.90
2019-02-17T04:00:17.561Z,29.80
2019-02-17T04:01:16.960Z,30.60
2019-02-17T04:02:16.951Z,31.60
2019-02-17T04:03:16.940Z,32.50
2019-02-17T04:04:16.938Z,27.00
2019-02-17T04:05:16.950Z,30.90
2019-02-17T04:06:16.897Z,29.10
2019-02-17T04:07:16.886Z,29.70
2019-02-17T04:08:16.879Z,31.00
2019-02-17T04:09:16.883Z,31.20
2019-02-17T04:10:16.852Z,29.30
2019-02-17T04:11:16.867Z,29.60
2019-02-17T04:12:16.830Z,30.70
2019-02-17T04:13:16.819Z,30.00
2019-02-17T04:14:16.808Z,28.10
2019-02-17T04:15:16.824Z,29.40
2019-02-17T04:16:16.789Z,28.80
2019-02-17T04:17:16.836Z,29.30
2019-02-17T04:18:16.768Z,29.60
2019-02-17T04:19:16.753Z,26.70
2019-02-17T04:20:16.741Z,28.20
2019-02-17T04:21:16.733Z,31.20
2019-02-17T04:22:16.722Z,28.00
2019-02-17T04:23:16.763Z,28.00
2019-02-17T04:24:16.698Z,28.70
2019-02-17T04:25:16.686Z,27.90
2019-02-17T04:26:16.676Z,27.30
2019-02-17T04:27:16.691Z,32.90
2019-02-17T04:28:16.658Z,30.10
2019-02-17T04:29:16.684Z,28.00
2019-02-17T04:30:28.159Z,28.30
2019-02-17T04:31:17.619Z,30.20
2019-02-17T04:32:16.608Z,28.40
2019-02-17T04:33:16.600Z,28.10
2019-02-17T04:34:16.593Z,29.00
2019-02-17T04:35:16.598Z,28.60
2019-02-17T04:36:16.564Z,28.50
2019-02-17T04:37:16.554Z,26.10
2019-02-17T04:38:16.544Z,30.20
2019-02-17T04:39:16.553Z,28.20
2019-02-17T04:40:16.548Z,26.60
2019-02-17T04:41:16.510Z,29.40
2019-02-17T04:42:16.499Z,30.20
2019-02-17T04:43:16.518Z,33.00
2019-02-17T04:44:16.479Z,30.90
2019-02-17T04:45:16.488Z,29.60
2019-02-17T04:46:16.489Z,30.20
2019-02-17T04:47:16.446Z,27.10
2019-02-17T04:48:16.434Z,30.10
2019-02-17T04:49:16.420Z,29.30
2019-02-17T04:50:16.409Z,29.10
2019-02-17T04:51:16.414Z,29.40
2019-02-17T04:52:16.423Z,29.30
2019-02-17T04:53:16.377Z,33.00
2019-02-17T04:54:16.366Z,29.20
2019-02-17T04:55:16.354Z,30.10
2019-02-17T04:56:16.343Z,28.50
2019-02-17T04:57:16.419Z,29.50
2019-02-17T04:58:16.353Z,29.90
2019-02-17T04:59:16.310Z,34.90
2019-02-17T05:00:16.308Z,31.00
2019-02-17T05:01:16.291Z,30.90
2019-02-17T05:02:16.288Z,29.70
2019-02-17T05:03:16.277Z,31.80
2019-02-17T05:04:16.296Z,32.40
2019-02-17T05:05:16.244Z,30.90
2019-02-17T05:06:16.234Z,30.90
2019-02-17T05:07:16.223Z,29.10
2019-02-17T05:08:16.222Z,33.10
2019-02-17T05:09:16.199Z,30.50
2019-02-17T05:10:16.248Z,31.90
2019-02-17T05:11:16.190Z,31.40
2019-02-17T05:12:16.168Z,32.40
2019-02-17T05:13:16.159Z,30.30
2019-02-17T05:14:16.167Z,29.20
2019-02-17T05:15:16.134Z,32.70
2019-02-17T05:16:16.172Z,30.10
2019-02-17T05:17:16.113Z,28.00
2019-02-17T05:18:16.100Z,29.90
2019-02-17T05:19:16.093Z,29.20
2019-02-17T05:20:16.093Z,31.00
2019-02-17T05:21:16.069Z,29.30
2019-02-17T05:22:16.105Z,29.30
2019-02-17T05:23:16.044Z,30.70
2019-02-17T05:24:16.055Z,30.80
2019-02-17T05:25:16.026Z,28.90
2019-02-17T05:26:16.043Z,29.70
2019-02-17T05:27:16.000Z,30.80
2019-02-17T05:28:16.013Z,31.50
2019-02-17T05:29:15.980Z,29.20
2019-02-17T05:30:15.978Z,28.40
2019-02-17T05:31:15.966Z,29.90
2019-02-17T05:32:15.962Z,30.20
2019-02-17T05:33:15.936Z,29.90
2019-02-17T05:34:15.950Z,31.20
2019-02-17T05:35:15.913Z,28.20
2019-02-17T05:36:15.913Z,29.60
2019-02-17T05:37:15.902Z,28.60
2019-02-17T05:38:15.890Z,30.20
2019-02-17T05:39:15.869Z,30.20
2019-02-17T05:40:15.881Z,29.90
2019-02-17T05:41:15.848Z,31.40
2019-02-17T05:42:15.838Z,28.10
2019-02-17T05:43:15.853Z,28.30
2019-02-17T05:44:15.812Z,30.30
2019-02-17T05:45:15.801Z,28.90
2019-02-17T05:46:15.829Z,31.70
2019-02-17T05:47:15.779Z,28.30
2019-02-17T05:48:15.767Z,31.10
2019-02-17T05:49:15.808Z,27.90
2019-02-17T05:50:15.747Z,31.90
2019-02-17T05:51:15.737Z,28.10
2019-02-17T05:52:15.757Z,31.10
2019-02-17T05:53:15.719Z,30.30
2019-02-17T05:54:15.722Z,30.40
2019-02-17T05:55:15.693Z,31.90
2019-02-17T05:56:15.679Z,30.30
2019-02-17T05:57:15.674Z,29.20
2019-02-17T05:58:15.775Z,32.80
2019-02-17T05:59:15.653Z,30.70
2019-02-17T06:00:15.653Z,32.30
2019-02-17T06:01:15.627Z,30.40
2019-02-17T06:02:15.613Z,29.70
2019-02-17T06:03:15.601Z,31.70
2019-02-17T06:04:15.634Z,30.00
2019-02-17T06:05:15.612Z,29.70
2019-02-17T06:06:15.570Z,28.10
2019-02-17T06:07:15.560Z,29.30
2019-02-17T06:08:15.551Z,31.70
2019-02-17T06:09:15.537Z,31.00
2019-02-17T06:10:15.558Z,31.50
2019-02-17T06:11:15.542Z,32.00
2019-02-17T06:12:15.507Z,30.30
2019-02-17T06:13:15.491Z,32.60
2019-02-17T06:14:15.483Z,33.20
2019-02-17T06:15:15.472Z,29.60
2019-02-17T06:16:15.498Z,27.70
2019-02-17T06:17:15.466Z,27.10
2019-02-17T06:18:15.436Z,28.40
2019-02-17T06:19:17.660Z,29.70
2019-02-17T06:20:15.414Z,29.90
2019-02-17T06:21:15.406Z,31.60
2019-02-17T06:22:15.422Z,31.50
2019-02-17T06:23:15.392Z,30.90
2019-02-17T06:24:15.372Z,27.60
2019-02-17T06:25:15.360Z,28.30
2019-02-17T06:26:15.350Z,29.20
2019-02-17T06:27:15.338Z,31.30
2019-02-17T06:28:15.396Z,29.80
2019-02-17T06:29:15.315Z,31.20
2019-02-17T06:30:15.305Z,27.70
2019-02-17T06:31:15.296Z,28.40
2019-02-17T06:32:15.282Z,26.30
2019-02-17T06:33:15.275Z,28.70
2019-02-17T06:34:15.395Z,26.40
2019-02-17T06:35:15.248Z,28.50
2019-02-17T06:36:15.238Z,30.80
2019-02-17T06:37:15.227Z,29.60
2019-02-17T06:38:15.219Z,28.90
2019-02-17T06:39:15.220Z,29.70
2019-02-17T06:40:15.223Z,30.20
2019-02-17T06:41:15.189Z,29.00
2019-02-17T06:42:15.215Z,28.30
2019-02-17T06:43:15.161Z,29.00
2019-02-17T06:44:15.150Z,29.40
2019-02-17T06:45:15.156Z,33.20
2019-02-17T06:46:15.149Z,28.80
2019-02-17T06:47:15.119Z,31.00
2019-02-17T06:48:15.107Z,33.10
2019-02-17T06:49:15.096Z,32.40
2019-02-17T06:50:15.083Z,30.20
2019-02-17T06:51:15.085Z,28.20
2019-02-17T06:52:15.078Z,31.80
2019-02-17T06:53:15.050Z,30.80
2019-02-17T06:54:15.039Z,30.90
2019-02-17T06:55:15.037Z,29.20
2019-02-17T06:56:15.030Z,30.00
2019-02-17T06:57:15.020Z,29.80
2019-02-17T06:58:15.031Z,27.70
2019-02-17T06:59:14.983Z,30.20
2019-02-17T07:00:14.979Z,32.90
2019-02-17T07:01:24.146Z,30.10
2019-02-17T07:02:15.969Z,28.20
2019-02-17T07:03:14.941Z,29.70
2019-02-17T07:04:14.968Z,28.20
2019-02-17T07:05:14.942Z,30.40
2019-02-17T07:06:14.933Z,30.30
2019-02-17T07:07:14.920Z,32.40
2019-02-17T07:08:14.906Z,30.00
2019-02-17T07:09:14.874Z,30.40
2019-02-17T07:10:14.885Z,27.80
2019-02-17T07:11:14.852Z,27.60
2019-02-17T07:12:14.865Z,30.40
2019-02-17T07:13:14.829Z,29.60
2019-02-17T07:14:14.828Z,28.50
2019-02-17T07:15:14.807Z,27.40
2019-02-17T07:16:14.840Z,30.20
2019-02-17T07:17:14.785Z,27.60
2019-02-17T07:18:14.787Z,31.20
2019-02-17T07:19:14.764Z,29.10
2019-02-17T07:20:14.752Z,28.20
2019-02-17T07:21:14.740Z,28.50
2019-02-17T07:22:14.763Z,27.00
2019-02-17T07:23:15.439Z,28.70
2019-02-17T07:24:14.728Z,29.10
2019-02-17T07:25:14.696Z,28.50
2019-02-17T07:26:17.035Z,28.10
2019-02-17T07:27:14.675Z,29.30
2019-02-17T07:28:14.684Z,30.60
2019-02-17T07:29:16.753Z,27.70
2019-02-17T07:30:14.662Z,26.40
2019-02-17T07:31:14.630Z,26.40
2019-02-17T07:32:14.622Z,30.30
2019-02-17T07:33:14.611Z,29.20
2019-02-17T07:34:14.629Z,25.90
2019-02-17T07:35:14.587Z,25.40
2019-02-17T07:36:14.589Z,27.40
2019-02-17T07:37:14.564Z,24.50
2019-02-17T07:38:14.557Z,26.20
2019-02-17T07:39:14.580Z,31.40
2019-02-17T07:40:14.530Z,29.20
2019-02-17T07:41:14.535Z,27.30
2019-02-17T07:42:14.511Z,26.40
2019-02-17T07:43:14.498Z,27.60
2019-02-17T07:44:14.487Z,28.40
2019-02-17T07:45:14.520Z,27.40
2019-02-17T07:46:14.465Z,26.60
2019-02-17T07:47:14.491Z,28.40
2019-02-17T07:48:14.453Z,27.20
2019-02-17T07:49:14.434Z,27.40
2019-02-17T07:50:14.420Z,27.10
2019-02-17T07:51:14.440Z,27.80
2019-02-17T07:52:14.401Z,28.90
2019-02-17T07:53:14.401Z,26.50
2019-02-17T07:54:14.382Z,24.90
2019-02-17T07:55:14.368Z,28.40
2019-02-17T07:56:14.354Z,28.10
2019-02-17T07:57:14.380Z,26.60
2019-02-17T07:58:14.350Z,28.60
2019-02-17T07:59:14.320Z,29.70
2019-02-17T08:00:14.309Z,30.70
2019-02-17T08:01:14.298Z,28.00
2019-02-17T08:02:14.290Z,27.70
2019-02-17T08:03:14.316Z,29.70
2019-02-17T08:04:14.282Z,26.50
2019-02-17T08:05:14.255Z,27.00
2019-02-17T08:06:14.245Z,25.50
2019-02-17T08:07:14.232Z,25.40
2019-02-17T08:08:14.226Z,28.10
2019-02-17T08:09:14.251Z,28.90
2019-02-17T08:10:14.210Z,29.30
2019-02-17T08:11:14.189Z,23.60
2019-02-17T08:12:14.177Z,25.10
2019-02-17T08:13:14.165Z,26.60
2019-02-17T08:14:14.184Z,27.90
2019-02-17T08:15:14.188Z,26.30
2019-02-17T08:16:14.134Z,25.40
2019-02-17T08:17:14.139Z,26.80
2019-02-17T08:18:14.111Z,25.70
2019-02-17T08:19:14.101Z,24.20
2019-02-17T08:20:14.087Z,25.50
2019-02-17T08:21:14.125Z,23.40
2019-02-17T08:22:14.064Z,24.90
2019-02-17T08:23:14.069Z,26.90
2019-02-17T08:24:14.051Z,23.60
2019-02-17T08:25:21.446Z,25.30
2019-02-17T08:26:15.024Z,24.20
2019-02-17T08:27:14.052Z,25.60
2019-02-17T08:28:14.000Z,25.50
2019-02-17T08:29:14.003Z,28.10
2019-02-17T08:30:13.978Z,22.80
2019-02-17T08:31:13.965Z,26.00
2019-02-17T08:32:13.955Z,24.30
2019-02-17T08:33:13.972Z,23.60
2019-02-17T08:34:13.931Z,22.40
2019-02-17T08:35:13.942Z,24.50
2019-02-17T08:36:13.914Z,23.50
2019-02-17T08:37:13.897Z,27.70
2019-02-17T08:38:13.886Z,23.70
2019-02-17T08:39:13.892Z,23.90
2019-02-17T08:40:13.863Z,22.70
2019-02-17T08:41:13.870Z,21.70
2019-02-17T08:42:13.843Z,23.60
2019-02-17T08:43:13.829Z,22.20
2019-02-17T08:44:13.818Z,22.50
2019-02-17T08:45:13.824Z,24.30
2019-02-17T08:46:13.795Z,20.90
2019-02-17T08:47:13.805Z,22.20
2019-02-17T08:48:13.772Z,22.20
2019-02-17T08:49:13.763Z,20.60
2019-02-17T08:50:13.752Z,23.30
2019-02-17T08:51:13.757Z,20.50
2019-02-17T08:52:13.743Z,22.60
2019-02-17T08:53:13.716Z,23.10
2019-02-17T08:54:13.706Z,24.80
2019-02-17T08:55:13.696Z,21.80
2019-02-17T08:56:13.683Z,28.30
2019-02-17T08:57:13.671Z,23.00
2019-02-17T08:58:13.670Z,22.60
2019-02-17T08:59:13.647Z,22.10
2019-02-17T09:00:13.645Z,22.30
2019-02-17T09:01:13.625Z,25.70
2019-02-17T09:02:13.631Z,23.90
2019-02-17T09:03:13.604Z,26.30
2019-02-17T09:04:13.590Z,25.90
2019-02-17T09:05:13.584Z,22.00
2019-02-17T09:06:13.571Z,24.00
2019-02-17T09:07:13.562Z,22.00
2019-02-17T09:08:13.569Z,22.00
2019-02-17T09:09:13.542Z,21.90
2019-02-17T09:10:13.565Z,21.10
2019-02-17T09:11:13.516Z,22.30
2019-02-17T09:12:13.506Z,23.20
2019-02-17T09:13:13.502Z,22.00
2019-02-17T09:14:13.503Z,20.80
2019-02-17T09:15:13.493Z,22.60
2019-02-17T09:16:13.463Z,23.60
2019-02-17T09:17:13.477Z,21.30
2019-02-17T09:18:13.441Z,20.80
2019-02-17T09:19:13.430Z,24.60
2019-02-17T09:20:13.437Z,24.10
2019-02-17T09:21:13.408Z,20.40
2019-02-17T09:22:13.408Z,21.00
2019-02-17T09:23:13.388Z,21.20
2019-02-17T09:24:13.391Z,25.50
2019-02-17T09:25:13.361Z,20.20
2019-02-17T09:26:13.357Z,22.30
2019-02-17T09:27:13.339Z,20.80
2019-02-17T09:28:13.359Z,20.80
2019-02-17T09:29:13.353Z,22.60
2019-02-17T09:30:13.306Z,22.30
2019-02-17T09:31:13.315Z,24.10
2019-02-17T09:32:16.311Z,23.70
2019-02-17T09:33:13.275Z,20.80
2019-02-17T09:34:13.309Z,20.00
2019-02-17T09:35:13.251Z,20.20
2019-02-17T09:36:13.238Z,21.20
2019-02-17T09:37:13.247Z,24.30
2019-02-17T09:38:13.250Z,22.90
2019-02-17T09:39:13.214Z,25.10
2019-02-17T09:40:13.197Z,23.00
2019-02-17T09:41:13.191Z,21.60
2019-02-17T09:42:13.196Z,21.90
2019-02-17T09:43:13.167Z,20.10
2019-02-17T09:44:13.151Z,20.10
2019-02-17T09:45:13.153Z,20.60
2019-02-17T09:46:13.123Z,22.30
2019-02-17T09:47:13.110Z,20.50
2019-02-17T09:48:13.112Z,20.90
2019-02-17T09:49:13.090Z,20.50
2019-02-17T09:50:13.078Z,20.90
2019-02-17T09:51:13.082Z,23.10
2019-02-17T09:52:13.058Z,22.80
2019-02-17T09:53:13.047Z,24.00
2019-02-17T09:54:13.035Z,22.00
2019-02-17T09:55:13.032Z,19.50
2019-02-17T09:56:13.020Z,22.20
2019-02-17T09:57:13.023Z,20.30
2019-02-17T09:58:13.001Z,23.00
2019-02-17T09:59:12.985Z,19.80
2019-02-17T10:00:12.973Z,18.80
2019-02-17T10:01:12.967Z,20.10
2019-02-17T10:02:12.978Z,23.30
2019-02-17T10:03:12.952Z,23.30
2019-02-17T10:04:12.932Z,21.50
2019-02-17T10:05:12.932Z,23.50
2019-02-17T10:06:12.932Z,21.90
2019-02-17T10:07:12.894Z,24.30
2019-02-17T10:08:12.906Z,20.30
2019-02-17T10:09:12.873Z,21.60
2019-02-17T10:10:12.868Z,22.10
2019-02-17T10:11:12.867Z,22.50
2019-02-17T10:12:12.858Z,23.60
2019-02-17T10:13:12.826Z,22.20
2019-02-17T10:14:12.846Z,25.10
2019-02-17T10:15:12.806Z,23.40
2019-02-17T10:16:12.810Z,22.20
2019-02-17T10:17:12.784Z,21.50
2019-02-17T10:18:12.766Z,22.00
2019-02-17T10:19:12.762Z,21.60
2019-02-17T10:20:12.775Z,21.20
2019-02-17T10:21:12.734Z,24.30
2019-02-17T10:22:12.721Z,22.60
2019-02-17T10:23:12.718Z,21.70
2019-02-17T10:24:12.699Z,23.30
2019-02-17T10:25:12.755Z,22.30
2019-02-17T10:26:12.700Z,21.70
2019-02-17T10:27:12.682Z,20.70
2019-02-17T10:28:12.678Z,23.00
2019-02-17T10:29:12.643Z,20.60
2019-02-17T10:30:12.635Z,21.60
2019-02-17T10:31:12.621Z,22.00
2019-02-17T10:32:12.622Z,21.30
2019-02-17T10:33:12.604Z,23.40
2019-02-17T10:34:12.617Z,23.10
2019-02-17T10:35:12.591Z,22.70
2019-02-17T10:36:12.572Z,24.20
2019-02-17T10:37:12.575Z,20.00
2019-02-17T10:38:12.545Z,19.70
2019-02-17T10:39:12.563Z,21.70
2019-02-17T10:40:12.521Z,21.30
2019-02-17T10:41:12.509Z,22.60
2019-02-17T10:42:12.517Z,20.60
2019-02-17T10:43:12.492Z,21.30
2019-02-17T10:44:12.486Z,24.90
2019-02-17T10:45:12.478Z,21.20
2019-02-17T10:46:12.462Z,22.80
2019-02-17T10:47:12.465Z,23.30
2019-02-17T10:48:12.449Z,19.60
2019-02-17T10:49:12.427Z,21.60
2019-02-17T10:50:12.430Z,20.60
2019-02-17T10:51:12.405Z,22.30
2019-02-17T10:52:12.516Z,20.20
2019-02-17T10:53:12.433Z,19.50
2019-02-17T10:54:12.383Z,12.70
2019-02-17T10:55:12.363Z,22.20
2019-02-17T10:56:12.400Z,22.90
2019-02-17T10:57:12.344Z,23.10
2019-02-17T10:58:12.321Z,22.40
2019-02-17T10:59:12.348Z,22.90
2019-02-17T11:00:12.310Z,25.20
2019-02-17T11:01:12.288Z,24.10
2019-02-17T11:02:12.297Z,21.70
2019-02-17T11:03:12.283Z,23.30
2019-02-17T11:04:12.257Z,22.20
2019-02-17T11:05:12.295Z,23.30
2019-02-17T11:06:12.233Z,20.50
2019-02-17T11:07:12.227Z,22.60
2019-02-17T11:08:12.213Z,22.50
2019-02-17T11:09:12.197Z,23.80
2019-02-17T11:10:12.195Z,23.80
2019-02-17T11:11:12.202Z,24.50
2019-02-17T11:12:12.176Z,24.90
2019-02-17T11:13:12.187Z,23.20
2019-02-17T11:14:12.141Z,22.70
2019-02-17T11:15:12.137Z,26.10
2019-02-17T11:16:12.114Z,24.10
2019-02-17T11:17:12.124Z,27.90
2019-02-17T11:18:12.101Z,26.60
2019-02-17T11:19:12.082Z,26.10
2019-02-17T11:20:12.073Z,26.20
2019-02-17T11:21:12.073Z,22.90
2019-02-17T11:22:12.063Z,22.80
2019-02-17T11:23:12.059Z,24.00
2019-02-17T11:24:12.121Z,23.20
2019-02-17T11:25:12.031Z,24.70
2019-02-17T11:26:12.009Z,25.80
2019-02-17T11:27:11.998Z,22.60
2019-02-17T11:28:11.987Z,24.50
2019-02-17T11:29:11.986Z,25.50
2019-02-17T11:30:11.968Z,25.00
2019-02-17T11:31:11.973Z,22.40
2019-02-17T11:32:11.937Z,24.90
2019-02-17T11:33:12.249Z,28.20
2019-02-17T11:34:12.156Z,26.50
2019-02-17T11:35:12.069Z,24.40
2019-02-17T11:36:12.052Z,23.90
2019-02-17T11:37:11.998Z,25.80
2019-02-17T11:38:12.116Z,26.50
2019-02-17T11:39:11.980Z,26.40
2019-02-17T11:40:11.920Z,23.10
2019-02-17T11:41:12.660Z,23.30
2019-02-17T11:42:11.905Z,25.80
2019-02-17T11:43:11.900Z,27.80
2019-02-17T11:44:11.869Z,25.10
2019-02-17T11:45:11.963Z,27.70
2019-02-17T11:46:11.834Z,25.20
2019-02-17T11:47:11.769Z,26.80
2019-02-17T11:48:11.789Z,25.00
2019-02-17T11:49:11.747Z,26.20
2019-02-17T11:50:11.737Z,26.90
2019-02-17T11:51:11.787Z,23.50
2019-02-17T11:52:11.714Z,25.30
2019-02-17T11:53:11.701Z,23.50
2019-02-17T11:54:11.692Z,21.70
2019-02-17T11:55:11.681Z,24.60
2019-02-17T11:56:11.689Z,25.80
2019-02-17T11:57:11.743Z,26.10
2019-02-17T11:58:11.652Z,25.40
2019-02-17T11:59:11.641Z,22.20
2019-02-17T12:00:11.633Z,24.00
2019-02-17T12:01:11.617Z,25.10
2019-02-17T12:02:11.629Z,24.10
2019-02-17T12:03:11.615Z,28.10
2019-02-17T12:04:11.581Z,24.80
2019-02-17T12:05:11.571Z,22.30
2019-02-17T12:06:11.555Z,26.00
2019-02-17T12:07:11.552Z,26.00
2019-02-17T12:08:11.568Z,23.70
2019-02-17T12:09:11.531Z,23.00
2019-02-17T12:10:11.520Z,24.90
2019-02-17T12:11:11.500Z,24.30
2019-02-17T12:12:13.676Z,22.30
2019-02-17T12:13:11.486Z,22.80
2019-02-17T12:14:11.534Z,22.80
2019-02-17T12:15:11.455Z,23.60
2019-02-17T12:16:11.445Z,25.00
2019-02-17T12:17:11.433Z,23.80
2019-02-17T12:18:11.425Z,23.10
2019-02-17T12:19:11.415Z,23.20
2019-02-17T12:20:11.460Z,21.70
2019-02-17T12:21:11.387Z,24.10
2019-02-17T12:22:11.380Z,22.20
2019-02-17T12:23:11.364Z,22.70
2019-02-17T12:24:11.369Z,21.80
2019-02-17T12:25:11.341Z,22.20
2019-02-17T12:26:11.393Z,30.20
2019-02-17T12:27:11.325Z,22.40
2019-02-17T12:28:11.310Z,21.10
2019-02-17T12:29:11.301Z,23.50
2019-02-17T12:30:11.293Z,22.60
2019-02-17T12:31:11.292Z,25.30
2019-02-17T12:32:11.290Z,24.80
2019-02-17T12:33:18.282Z,22.60
2019-02-17T12:34:12.247Z,24.30
2019-02-17T12:35:11.246Z,24.10
2019-02-17T12:36:11.223Z,22.70
2019-02-17T12:37:11.257Z,24.50
2019-02-17T12:38:11.202Z,23.40
2019-02-17T12:39:11.233Z,23.00
2019-02-17T12:40:11.173Z,24.00
2019-02-17T12:41:11.161Z,22.90
2019-02-17T12:42:11.155Z,22.10
2019-02-17T12:43:11.157Z,24.90
2019-02-17T12:44:11.130Z,25.50
2019-02-17T12:45:11.168Z,21.20
2019-02-17T12:46:11.109Z,21.80
2019-02-17T12:47:11.094Z,20.20
2019-02-17T12:48:11.083Z,22.50
2019-02-17T12:49:11.096Z,23.10
2019-02-17T12:50:11.062Z,24.00
2019-02-17T12:51:11.135Z,22.10
2019-02-17T12:52:11.047Z,21.10